Погода Лузиландияна неделю

Пиауи, Бразилия

16 - 22 июля
  • 16июля
    Сегодня
    +20°
    +32°
    Ясно и безоблачно
    ВремяПогодаТемператураВлажностьДавлениеВетер, м/сВероятность осадков
    00:00Ясно и безоблачно+25°C68 %761 мм2.2 м/с5 %
    03:00Ясно и безоблачно+23°C76 %760 мм2.1 м/с5 %
    06:00Ясно и безоблачно+22°C79 %761 мм2.1 м/с5 %
    09:00Ясно и безоблачно+27°C61 %762 мм3.7 м/с5 %
    12:00Ясно и безоблачно+30°C46 %761 мм5.1 м/с5 %
    15:00Ясно и безоблачно+31°C39 %759 мм3.5 м/с5 %
    18:00Небольшая облачность+29°C54 %760 мм1.3 м/с5 %
    21:00Небольшая облачность+25°C66 %762 мм0.6 м/с5 %
  • 17июля
    Среда
    +22°
    +33°
    Ясно и безоблачно
    ВремяПогодаТемператураВлажностьДавлениеВетер, м/сВероятность осадков
    00:00Ясно и безоблачно+23°C82 %762 мм1.8 м/с5 %
    03:00Ясно и безоблачно+22°C79 %760 мм1.7 м/с5 %
    06:00Ясно и безоблачно+21°C80 %761 мм2.5 м/с5 %
    09:00Ясно и безоблачно+27°C60 %762 мм1.9 м/с5 %
    12:00Ясно и безоблачно+31°C46 %761 мм4.2 м/с5 %
    15:00Ясно и безоблачно+32°C42 %759 мм2.3 м/с5 %
    18:00Ясно и безоблачно+30°C66 %759 мм1.7 м/с5 %
    21:00Практически безоблачно+26°C73 %761 мм3.5 м/с5 %
  • 18июля
    Четверг
    +22°
    +33°
    Небольшая облачность
    ВремяПогодаТемператураВлажностьДавлениеВетер, м/сВероятность осадков
    00:00Ясно и безоблачно+25°C90 %761 мм2.3 м/с5 %
    03:00Ясно и безоблачно+23°C95 %760 мм1.7 м/с5 %
    06:00Ясно и безоблачно+23°C97 %760 мм1.6 м/с5 %
    09:00Ясно и безоблачно+27°C75 %762 мм0.8 м/с3 %
    12:00Небольшая облачность+30°C51 %761 мм3.5 м/с5 %
    15:00Небольшая облачность+32°C45 %759 мм2.4 м/с5 %
    18:00Небольшая облачность+31°C54 %759 мм0.3 м/с3 %
    21:00Ясно и безоблачно+26°C73 %761 мм3.7 м/с5 %
  • 19июля
    Пятница
    +23°
    +34°
    Ясно и безоблачно
    ВремяПогодаТемператураВлажностьДавлениеВетер, м/сВероятность осадков
    00:00Ясно и безоблачно+25°C89 %761 мм2.0 м/с4 %
    03:00Ясно и безоблачно+23°C95 %760 мм1.4 м/с3 %
    06:00Ясно и безоблачно+24°C92 %761 мм2.3 м/с6 %
    09:00Ясно и безоблачно+28°C72 %762 мм1.9 м/с4 %
    12:00Ясно и безоблачно+31°C50 %761 мм1.9 м/с4 %
    15:00Ясно и безоблачно+33°C42 %759 мм2.4 м/с5 %
    18:00Практически безоблачно+31°C65 %759 мм1.1 м/с4 %
    21:00Облачно с прояснениями+26°C79 %761 мм4.0 м/с5 %
  • 20июля
    Суббота
    +23°
    +32°
    Ясно и безоблачно
    ВремяПогодаТемператураВлажностьДавлениеВетер, м/сВероятность осадков
    00:00Практически безоблачно+26°C83 %761 мм2.0 м/с22 %
    03:00Облачно с прояснениями+25°C89 %760 мм2.4 м/с12 %
    06:00Ясно и безоблачно+24°C92 %761 мм1.1 м/с18 %
    09:00Ясно и безоблачно+29°C65 %762 мм3.5 м/с10 %
    12:00Ясно и безоблачно+31°C46 %761 мм4.5 м/с3 %
    15:00Ясно и безоблачно+32°C42 %759 мм3.3 м/с5 %
    18:00Ясно и безоблачно+30°C56 %759 мм1.8 м/с4 %
    21:00Практически безоблачно+27°C64 %760 мм3.2 м/с5 %
Мы используем cookies
Соглашаюсь